Time;durP1;ratioP1;P1;durP2;ratioP2;P2;SDS_P1;SDS_P2;PMS_P1;PMS_P2;Temp;Humidity;BMP_temperature;BMP_pressure;BME280_temperature;BME280_humidity;BME280_pressure;Samples;Min_cycle;Max_cycle;Signal;HPM_P1;HPM_P2
2022/02/06 00:00:09;;;;;;;39.75;18.60;;;;;;;-8.71;65.60;98741.19;5093328;28;20032;-51
2022/02/06 00:02:37;;;;;;;43.05;18.92;;;;;;;-8.63;65.87;98741.03;5092680;28;20138;-51
2022/02/06 00:05:04;;;;;;;39.22;17.77;;;;;;;-8.54;65.37;98739.13;5093041;28;20039;-52
2022/02/06 00:07:30;;;;;;;34.47;15.68;;;;;;;-8.38;65.00;98734.41;5093506;28;20040;-53
2022/02/06 00:09:57;;;;;;;40.30;18.73;;;;;;;-8.33;65.04;98729.13;5093734;28;20062;-48
2022/02/06 00:12:22;;;;;;;43.33;18.75;;;;;;;-8.22;64.90;98727.16;5092744;28;20485;-50
2022/02/06 00:14:48;;;;;;;40.67;18.92;;;;;;;-8.16;64.35;98705.38;5093270;28;20437;-52
2022/02/06 00:17:14;;;;;;;40.85;18.23;;;;;;;-8.02;64.46;98707.66;5093316;28;20028;-51
2022/02/06 00:19:42;;;;;;;39.00;18.17;;;;;;;-7.96;64.10;98712.75;5093691;28;20038;-54
2022/02/06 00:22:10;;;;;;;44.20;19.65;;;;;;;-7.88;63.73;98712.53;5092622;28;20032;-51
2022/02/06 00:24:50;;;;;;;37.10;19.15;;;;;;;-7.85;64.07;98709.88;5093095;28;20051;-50
2022/02/06 00:27:30;;;;;;;40.60;18.83;;;;;;;-7.76;63.60;98701.00;5092291;28;20071;-50
2022/02/06 00:30:05;;;;;;;39.40;19.10;;;;;;;-7.81;63.51;98690.75;5093549;28;20052;-52
2022/02/06 00:32:37;;;;;;;45.72;19.77;;;;;;;-7.69;63.09;98706.91;5091840;28;20042;-49
2022/02/06 00:43:15;;;;;;;40.20;19.08;;;;;;;-7.47;62.84;98683.84;5093021;28;20028;-53
2022/02/06 00:45:40;;;;;;;41.55;19.88;;;;;;;-7.51;62.63;98682.19;5092535;28;20039;-54
2022/02/06 00:48:06;;;;;;;43.83;18.10;;;;;;;-7.51;62.51;98677.00;5091770;28;20036;-53
2022/02/06 00:50:34;;;;;;;42.53;19.92;;;;;;;-7.57;62.66;98674.56;5093495;28;20077;-52
2022/02/06 00:53:07;;;;;;;41.08;20.10;;;;;;;-7.64;62.70;98666.06;5092624;28;20071;-55
2022/02/06 00:55:32;;;;;;;37.38;18.20;;;;;;;-7.61;62.72;98685.94;5092216;28;20024;-51
2022/02/06 00:57:58;;;;;;;42.42;18.85;;;;;;;-7.71;63.13;98661.91;5090487;28;20147;-52
2022/02/06 01:00:24;;;;;;;38.85;18.88;;;;;;;-7.59;63.04;98673.75;5092139;28;20149;-52
2022/02/06 01:02:50;;;;;;;44.95;19.30;;;;;;;-7.57;62.50;98667.63;5093291;28;20048;-56
2022/02/06 01:05:16;;;;;;;44.08;18.83;;;;;;;-7.58;62.68;98657.25;5090974;28;20063;-57
2022/02/06 01:07:42;;;;;;;39.10;18.70;;;;;;;-7.66;62.81;98647.06;5091708;28;20543;-57
2022/02/06 01:10:08;;;;;;;41.00;18.88;;;;;;;-7.64;62.89;98646.13;5091754;28;20031;-56
2022/02/06 01:12:35;;;;;;;38.10;18.50;;;;;;;-7.62;62.80;98643.47;5092358;28;20020;-57
2022/02/06 01:17:33;;;;;;;39.63;17.65;;;;;;;-7.51;61.99;98630.19;5091538;28;20107;-56
2022/02/06 01:20:05;;;;;;;32.95;16.75;;;;;;;-7.57;62.54;98632.97;5091913;28;20028;-55
2022/02/06 01:22:33;;;;;;;34.85;16.17;;;;;;;-7.48;62.02;98624.91;5092359;28;20035;-53
2022/02/06 01:25:11;;;;;;;33.33;16.90;;;;;;;-7.51;61.97;98631.06;5091280;28;20392;-53
2022/02/06 01:28:13;;;;;;;33.75;16.23;;;;;;;-7.50;62.17;98626.72;5110201;28;20039;-50
2022/02/06 01:30:42;;;;;;;39.85;17.67;;;;;;;-7.54;62.92;98610.34;5109379;28;20408;-52
2022/02/06 01:33:14;;;;;;;34.95;17.73;;;;;;;-7.47;62.16;98613.66;5111614;28;20449;-51
2022/02/06 01:35:51;;;;;;;36.38;16.90;;;;;;;-7.47;61.87;98605.00;5111842;28;20027;-52
2022/02/06 01:38:37;;;;;;;33.90;17.35;;;;;;;-7.47;61.76;98599.78;5110475;27;20111;-52
2022/02/06 01:41:15;;;;;;;34.78;16.30;;;;;;;-7.45;61.38;98618.78;5091372;28;20036;-52
2022/02/06 01:43:47;;;;;;;35.42;15.82;;;;;;;-7.73;61.84;98577.94;5091060;28;20031;-55
2022/02/06 02:00:39;;;;;;;30.13;15.55;;;;;;;-7.49;62.12;98584.22;5091161;28;20124;-55
2022/02/06 02:23:52;;;;;;;37.85;16.33;;;;;;;-7.43;61.74;98565.88;5091024;28;20034;-53
2022/02/06 02:47:29;;;;;;;36.63;16.02;;;;;;;-7.40;61.61;98547.59;5089627;28;20423;-52
2022/02/06 02:50:00;;;;;;;29.85;14.45;;;;;;;-7.40;61.90;98538.91;5091018;28;20036;-56
2022/02/06 02:55:22;;;;;;;29.10;14.15;;;;;;;-7.31;61.85;98543.88;5090557;28;20028;-50
2022/02/06 02:57:54;;;;;;;30.77;14.63;;;;;;;-7.53;61.50;98499.41;5102547;28;20034;-51
2022/02/06 03:00:39;;;;;;;28.63;14.38;;;;;;;-7.36;61.92;98530.13;5115305;28;20108;-51
2022/02/06 03:05:49;;;;;;;31.15;14.30;;;;;;;-7.25;61.38;98533.28;5114741;28;20035;-51
2022/02/06 03:08:15;;;;;;;31.02;14.20;;;;;;;-7.23;61.58;98528.88;5115204;28;20027;-51
2022/02/06 03:10:42;;;;;;;31.60;15.30;;;;;;;-7.24;61.57;98523.72;5113098;28;20110;-50
2022/02/06 03:13:11;;;;;;;30.08;15.00;;;;;;;-7.35;61.51;98517.09;5114071;28;20038;-53
2022/02/06 03:18:04;;;;;;;30.23;15.02;;;;;;;-7.32;61.96;98534.38;5114927;28;20032;-52
2022/02/06 03:20:31;;;;;;;27.77;13.55;;;;;;;-7.29;61.83;98510.00;5114173;28;20065;-51
2022/02/06 03:23:01;;;;;;;28.17;14.90;;;;;;;-7.26;61.59;98521.19;5112101;28;20020;-50
2022/02/06 03:25:27;;;;;;;26.10;13.13;;;;;;;-7.26;61.68;98517.72;5113875;28;20054;-50
2022/02/06 03:27:53;;;;;;;21.58;10.20;;;;;;;-7.20;61.43;98507.16;5114353;28;20051;-50
2022/02/06 03:30:20;;;;;;;29.67;14.35;;;;;;;-7.29;61.15;98513.47;5114124;28;20115;-51
2022/02/06 03:32:46;;;;;;;30.90;14.65;;;;;;;-7.45;61.57;98502.66;5113886;28;20534;-51
2022/02/06 03:35:12;;;;;;;29.40;14.80;;;;;;;-7.43;62.19;98503.47;5109719;28;20069;-52
2022/02/06 03:37:40;;;;;;;30.52;14.48;;;;;;;-7.43;62.01;98493.06;5093692;28;20461;-53
2022/02/06 03:40:07;;;;;;;31.92;14.23;;;;;;;-7.31;62.31;98497.06;5093179;28;20032;-50
2022/02/06 03:42:51;;;;;;;29.55;13.38;;;;;;;-7.46;61.87;98467.16;5093549;28;20032;-51
2022/02/06 03:45:20;;;;;;;30.70;14.60;;;;;;;-7.18;61.66;98491.47;5093133;28;20035;-51
2022/02/06 03:47:51;;;;;;;29.35;14.02;;;;;;;-7.17;61.56;98501.00;5097220;28;20030;-50
2022/02/06 03:50:18;;;;;;;28.75;13.82;;;;;;;-7.22;61.93;98495.94;5114061;28;20046;-55
2022/02/06 03:52:53;;;;;;;33.33;14.68;;;;;;;-7.21;61.41;98492.44;5113243;28;20464;-53
2022/02/06 03:55:19;;;;;;;28.90;14.15;;;;;;;-7.22;61.98;98501.97;5113482;28;20028;-50
2022/02/06 03:57:50;;;;;;;31.75;14.63;;;;;;;-7.18;61.32;98496.69;5114141;28;20031;-52
2022/02/06 04:00:18;;;;;;;32.28;14.80;;;;;;;-7.12;61.66;98501.69;5111721;28;20388;-54
2022/02/06 04:02:45;;;;;;;31.15;15.32;;;;;;;-7.11;61.59;98499.06;5113350;28;20075;-53
2022/02/06 04:05:11;;;;;;;27.30;14.02;;;;;;;-7.11;62.17;98488.66;5113864;28;20392;-52
2022/02/06 04:07:37;;;;;;;33.13;15.40;;;;;;;-7.06;61.17;98494.56;5113381;28;20468;-51
2022/02/06 04:10:03;;;;;;;29.58;14.38;;;;;;;-7.03;61.34;98490.16;5113266;28;20063;-52
2022/02/06 04:12:30;;;;;;;31.35;14.38;;;;;;;-7.02;61.49;98491.88;5111346;28;20031;-52
2022/02/06 04:15:06;;;;;;;30.17;14.00;;;;;;;-7.00;61.20;98488.34;5114077;28;20491;-51
2022/02/06 04:17:42;;;;;;;28.77;14.73;;;;;;;-7.08;61.76;98487.72;5113018;28;20080;-50
2022/02/06 04:20:08;;;;;;;29.13;14.07;;;;;;;-7.13;61.98;98495.66;5109197;28;20396;-49
2022/02/06 04:22:34;;;;;;;31.92;14.85;;;;;;;-7.09;61.81;98497.25;5113340;28;20080;-51
2022/02/06 04:24:59;;;;;;;29.10;14.85;;;;;;;-7.09;61.73;98489.47;5109178;28;20020;-53
2022/02/06 04:27:25;;;;;;;34.78;15.32;;;;;;;-7.01;61.29;98498.78;5092759;28;20036;-53
2022/02/06 04:29:53;;;;;;;31.65;14.98;;;;;;;-7.06;61.70;98502.38;5092453;28;20031;-52
2022/02/06 04:32:19;;;;;;;33.10;15.32;;;;;;;-7.04;61.62;98509.28;5092901;28;20035;-51
2022/02/06 04:34:45;;;;;;;32.72;15.30;;;;;;;-7.06;61.68;98507.56;5093157;28;20032;-51
2022/02/06 04:37:18;;;;;;;33.53;15.73;;;;;;;-7.01;61.44;98503.97;5093001;28;20483;-49
2022/02/06 05:17:19;;;;;;;34.53;16.42;;;;;;;-7.17;61.55;98465.44;5111075;28;20032;-53
2022/02/06 05:25:34;;;;;;;34.97;15.93;;;;;;;-6.98;61.00;98490.91;5111658;28;20085;-53
2022/02/06 05:31:03;;;;;;;40.42;17.38;;;;;;;-7.00;61.14;98492.66;5106717;28;20120;-55
2022/02/06 05:33:28;;;;;;;36.70;16.35;;;;;;;-7.06;61.23;98494.56;5111450;28;20042;-53
2022/02/06 05:35:54;;;;;;;38.35;16.90;;;;;;;-7.00;61.66;98497.88;5111748;28;20118;-52
2022/02/06 05:38:20;;;;;;;41.17;17.48;;;;;;;-7.01;61.63;98494.44;5111684;28;20099;-55
2022/02/06 05:40:45;;;;;;;38.63;17.80;;;;;;;-6.97;61.25;98495.22;5108346;28;20030;-53
2022/02/06 05:43:11;;;;;;;36.22;16.55;;;;;;;-6.93;61.23;98496.81;5111053;28;20365;-49
2022/02/06 05:45:36;;;;;;;40.33;17.85;;;;;;;-6.94;61.34;98502.91;5112170;28;20032;-53
2022/02/06 05:48:04;;;;;;;38.13;17.30;;;;;;;-6.95;61.43;98496.00;5111389;28;20398;-50
2022/02/06 05:50:31;;;;;;;41.35;17.75;;;;;;;-6.94;61.56;98477.72;5111656;28;20382;-54
2022/02/06 05:52:57;;;;;;;40.22;16.85;;;;;;;-6.88;61.38;98488.84;5110244;28;20020;-51
2022/02/06 05:55:23;;;;;;;42.65;19.05;;;;;;;-6.82;61.11;98488.66;5111492;28;20031;-50
2022/02/06 05:57:48;;;;;;;35.22;16.83;;;;;;;-6.79;61.04;98493.78;5110819;28;20024;-54
2022/02/06 06:00:14;;;;;;;40.30;18.67;;;;;;;-6.78;60.60;98493.72;5111519;28;20062;-55
2022/02/06 06:02:40;;;;;;;36.67;17.08;;;;;;;-6.80;60.92;98484.25;5111688;28;20459;-51
2022/02/06 06:05:06;;;;;;;43.42;18.63;;;;;;;-6.79;60.67;98473.78;5111411;28;20484;-51
2022/02/06 06:07:31;;;;;;;40.67;17.85;;;;;;;-6.71;60.13;98483.97;5109412;28;20042;-55
2022/02/06 06:09:57;;;;;;;41.78;19.20;;;;;;;-6.73;60.50;98490.13;5111795;28;20476;-51
2022/02/06 06:12:22;;;;;;;40.22;18.50;;;;;;;-6.74;60.67;98493.63;5111089;28;20381;-52
2022/02/06 06:14:48;;;;;;;46.03;18.50;;;;;;;-6.74;60.38;98493.63;5110986;28;20024;-53
2022/02/06 06:17:14;;;;;;;42.30;19.35;;;;;;;-6.71;60.78;98488.34;5111355;28;20034;-52
2022/02/06 06:19:45;;;;;;;41.85;18.95;;;;;;;-6.60;60.91;98485.38;5108746;28;20031;-52
2022/02/06 06:22:11;;;;;;;42.88;19.70;;;;;;;-6.51;60.31;98488.53;5111085;28;20031;-51
2022/02/06 06:24:43;;;;;;;48.03;20.95;;;;;;;-6.54;60.43;98477.38;5111069;28;20035;-51
2022/02/06 06:27:10;;;;;;;45.42;20.40;;;;;;;-6.47;60.08;98478.84;5111432;28;20387;-56
2022/02/06 06:29:35;;;;;;;42.60;20.27;;;;;;;-6.44;59.99;98483.13;5112482;28;20031;-58
2022/02/06 06:32:01;;;;;;;48.15;19.90;;;;;;;-6.30;60.00;98493.09;5113528;28;20464;-53
2022/02/06 06:34:26;;;;;;;48.75;21.50;;;;;;;-6.28;60.18;98478.25;5114477;28;20080;-54
2022/02/06 06:36:53;;;;;;;41.58;20.27;;;;;;;-6.07;60.27;98487.09;5115545;28;20049;-53
2022/02/06 06:39:31;;;;;;;48.90;20.88;;;;;;;-5.97;59.57;98491.06;5115620;28;20030;-52
2022/02/06 06:41:56;;;;;;;46.63;20.50;;;;;;;-5.88;59.14;98484.69;5115183;28;20103;-51
2022/02/06 06:44:22;;;;;;;48.35;21.02;;;;;;;-5.89;58.96;98480.38;5112928;28;20111;-51
2022/02/06 06:46:47;;;;;;;49.08;21.85;;;;;;;-5.77;58.59;98494.72;5115547;28;20579;-53
2022/02/06 06:49:13;;;;;;;43.25;20.48;;;;;;;-5.66;58.57;98487.34;5115523;28;20089;-50
2022/02/06 06:51:38;;;;;;;44.63;21.27;;;;;;;-5.36;57.62;98489.75;5113645;28;20028;-50
2022/02/06 06:54:11;;;;;;;49.08;20.92;;;;;;;-4.88;57.51;98497.53;5113315;28;20472;-54
2022/02/06 06:56:44;;;;;;;43.28;20.70;;;;;;;-4.41;56.43;98486.09;5113185;28;20027;-60
2022/02/06 06:59:26;;;;;;;48.03;21.15;;;;;;;-3.97;54.60;98485.16;5115091;28;20437;-52
2022/02/06 07:02:04;;;;;;;44.80;21.52;;;;;;;-3.70;53.34;98491.88;5114271;28;20073;-53
2022/02/06 07:04:30;;;;;;;48.17;21.73;;;;;;;-4.02;53.30;98476.66;5114050;28;20050;-50
2022/02/06 07:06:56;;;;;;;47.50;21.35;;;;;;;-4.26;54.92;98497.69;5114839;27;20031;-53
2022/02/06 07:09:23;;;;;;;43.42;20.13;;;;;;;-4.46;55.39;98485.47;5105796;28;20423;-54
2022/02/06 07:11:48;;;;;;;45.58;20.25;;;;;;;-4.54;55.32;98500.56;5093923;28;20102;-52
2022/02/06 07:14:14;;;;;;;43.33;19.88;;;;;;;-4.66;55.36;98488.84;5093561;28;20061;-51
2022/02/06 07:16:39;;;;;;;47.38;22.60;;;;;;;-4.94;56.34;98489.94;5093514;28;20122;-52
2022/02/06 07:19:05;;;;;;;49.47;20.85;;;;;;;-5.14;57.32;98488.94;5092597;28;20060;-51
2022/02/06 07:21:34;;;;;;;48.42;21.60;;;;;;;-5.14;57.06;98498.53;5094834;28;20334;-56
2022/02/06 07:24:00;;;;;;;45.28;20.52;;;;;;;-5.26;56.77;98499.84;5093384;28;20028;-52
2022/02/06 07:26:26;;;;;;;45.78;20.52;;;;;;;-5.23;57.45;98489.31;5093682;28;20111;-55
2022/02/06 07:28:57;;;;;;;45.63;20.65;;;;;;;-5.24;57.60;98479.78;5093295;28;20032;-54
2022/02/06 07:31:23;;;;;;;46.83;21.48;;;;;;;-5.06;57.00;98486.03;5093287;28;20048;-55
2022/02/06 07:33:48;;;;;;;42.58;18.77;;;;;;;-4.87;56.31;98491.41;5094823;28;20036;-55
2022/02/06 07:36:16;;;;;;;45.30;20.42;;;;;;;-4.87;55.97;98480.94;5093199;28;20068;-55
2022/02/06 07:38:42;;;;;;;43.97;20.65;;;;;;;-4.93;56.19;98486.41;5102080;28;20529;-52
2022/02/06 07:41:07;;;;;;;43.85;19.98;;;;;;;-4.87;56.69;98485.34;5112240;28;20106;-55
2022/02/06 07:43:33;;;;;;;49.30;21.25;;;;;;;-4.77;55.96;98490.13;5110928;28;20028;-56
2022/02/06 07:45:59;;;;;;;42.47;20.15;;;;;;;-4.66;55.85;98497.56;5110259;28;20024;-58
2022/02/06 07:48:24;;;;;;;47.08;21.40;;;;;;;-4.79;55.79;98454.53;5109430;28;20024;-58
2022/02/06 07:50:50;;;;;;;41.45;20.05;;;;;;;-4.43;55.10;98487.06;5112485;28;20388;-56
2022/02/06 07:53:15;;;;;;;41.58;19.35;;;;;;;-4.29;55.02;98491.72;5112655;28;20069;-56
2022/02/06 07:55:41;;;;;;;44.10;20.45;;;;;;;-4.26;54.66;98475.91;5112343;28;20023;-54
2022/02/06 07:58:06;;;;;;;43.05;20.38;;;;;;;-4.24;54.43;98474.94;5112411;28;20063;-52
2022/02/06 08:00:32;;;;;;;40.03;19.75;;;;;;;-4.06;54.00;98494.22;5109016;28;20081;-55
2022/02/06 08:02:57;;;;;;;46.47;21.48;;;;;;;-4.11;54.15;98479.66;5111798;28;20147;-56
2022/02/06 08:05:25;;;;;;;42.20;19.50;;;;;;;-4.32;54.38;98467.44;5112461;28;20036;-55
2022/02/06 08:07:51;;;;;;;47.05;20.42;;;;;;;-4.11;54.40;98498.81;5113269;28;20582;-51
2022/02/06 08:10:17;;;;;;;43.75;20.25;;;;;;;-4.21;54.90;98494.91;5112775;28;20028;-53
2022/02/06 08:12:53;;;;;;;44.65;20.30;;;;;;;-4.46;54.78;98459.34;5100485;28;20028;-53
2022/02/06 08:15:19;;;;;;;45.60;20.33;;;;;;;-4.06;54.41;98506.47;5093091;28;20397;-48
2022/02/06 08:17:45;;;;;;;48.25;20.58;;;;;;;-4.04;54.21;98496.78;5091132;28;20035;-48
2022/02/06 08:20:15;;;;;;;46.47;20.83;;;;;;;-4.08;54.57;98505.69;5092269;28;20089;-55
2022/02/06 08:22:42;;;;;;;50.67;22.52;;;;;;;-4.09;54.61;98504.00;5092929;28;20358;-54
2022/02/06 08:25:11;;;;;;;44.45;19.92;;;;;;;-3.99;53.76;98489.59;5099992;28;20065;-56
2022/02/06 08:27:38;;;;;;;39.88;20.00;;;;;;;-4.04;54.47;98495.00;5090160;28;20436;-59
2022/02/06 08:30:05;;;;;;;45.70;20.30;;;;;;;-3.98;54.42;98495.66;5091275;28;20055;-59
2022/02/06 08:32:32;;;;;;;41.60;20.67;;;;;;;-4.01;53.77;98480.97;5107368;28;20042;-53
2022/02/06 08:34:59;;;;;;;43.28;20.08;;;;;;;-3.85;53.82;98494.25;5112416;28;20024;-59
2022/02/06 08:37:24;;;;;;;44.17;20.90;;;;;;;-3.93;53.47;98478.88;5105639;28;20044;-57
2022/02/06 08:39:51;;;;;;;44.92;21.27;;;;;;;-3.98;53.94;98488.69;5091578;28;20031;-58
2022/02/06 08:42:16;;;;;;;40.45;20.17;;;;;;;-3.99;54.55;98489.59;5090410;28;20028;-59
2022/02/06 08:44:44;;;;;;;41.85;20.42;;;;;;;-3.91;54.20;98491.91;5092266;28;20024;-61
2022/02/06 08:47:12;;;;;;;45.72;20.60;;;;;;;-3.79;53.86;98477.44;5091463;28;20032;-62
2022/02/06 08:49:39;;;;;;;45.00;21.08;;;;;;;-3.84;54.18;98482.84;5091771;28;20492;-57
2022/02/06 08:52:06;;;;;;;44.63;20.77;;;;;;;-3.83;54.24;98488.94;5090988;28;20035;-54
2022/02/06 08:54:33;;;;;;;43.05;19.80;;;;;;;-3.69;53.43;98472.66;5098007;28;20047;-54
2022/02/06 08:57:02;;;;;;;45.38;20.55;;;;;;;-3.47;53.58;98486.47;5093284;28;20046;-58
2022/02/06 08:59:32;;;;;;;43.10;20.92;;;;;;;-3.34;52.96;98476.31;5111159;28;20138;-59
2022/02/06 09:02:00;;;;;;;42.90;20.10;;;;;;;-3.11;52.31;98487.50;5106172;28;20534;-57
2022/02/06 09:04:27;;;;;;;47.00;21.38;;;;;;;-3.05;52.61;98478.47;5108459;28;20040;-55
2022/02/06 09:06:57;;;;;;;45.42;21.42;;;;;;;-2.91;51.90;98472.59;5110725;28;20135;-53
2022/02/06 09:09:22;;;;;;;38.00;18.48;;;;;;;-2.59;50.87;98496.44;5110754;28;20076;-50
2022/02/06 09:11:48;;;;;;;44.03;21.00;;;;;;;-2.49;51.20;98488.97;5108999;28;20027;-57
2022/02/06 09:14:17;;;;;;;46.40;22.00;;;;;;;-2.47;51.08;98490.59;5110313;28;20035;-60
2022/02/06 09:16:42;;;;;;;42.17;21.50;;;;;;;-2.24;50.88;98488.59;5090629;28;20378;-57
2022/02/06 09:19:08;;;;;;;42.80;20.40;;;;;;;-2.12;50.63;98470.56;5090263;28;20111;-59
2022/02/06 09:21:33;;;;;;;45.67;22.10;;;;;;;-1.91;49.72;98479.13;5090686;28;20050;-55
2022/02/06 09:23:59;;;;;;;44.92;20.73;;;;;;;-1.89;49.79;98483.38;5090142;28;20027;-55
2022/02/06 09:26:26;;;;;;;44.20;21.30;;;;;;;-1.89;50.59;98488.63;5109152;28;20400;-59
2022/02/06 09:28:51;;;;;;;44.10;22.40;;;;;;;-1.88;50.28;98479.81;5093182;28;20028;-52
2022/02/06 09:31:23;;;;;;;43.75;21.30;;;;;;;-1.83;49.92;98481.34;5089920;28;20038;-56
2022/02/06 09:36:14;;;;;;;44.92;22.20;;;;;;;-2.03;49.71;98459.59;5090938;28;20358;-56
2022/02/06 09:38:40;;;;;;;46.42;23.60;;;;;;;-2.40;51.58;98454.44;5104863;28;20074;-57
2022/02/06 09:41:05;;;;;;;47.40;23.35;;;;;;;-2.41;52.03;98468.47;5098184;28;20032;-64
2022/02/06 09:43:32;;;;;;;48.22;23.45;;;;;;;-2.47;51.61;98481.88;5110398;28;20028;-58
2022/02/06 09:46:00;;;;;;;53.88;24.38;;;;;;;-2.66;51.67;98476.66;5110725;28;20072;-55
2022/02/06 09:48:29;;;;;;;45.58;22.00;;;;;;;-2.88;51.77;98483.78;5110554;28;20064;-57
2022/02/06 09:50:55;;;;;;;51.17;23.77;;;;;;;-3.20;53.49;98482.66;5111855;28;20027;-56
2022/02/06 09:53:21;;;;;;;50.72;24.33;;;;;;;-3.26;54.07;98477.72;5101083;28;20043;-55
2022/02/06 09:55:47;;;;;;;46.13;22.25;;;;;;;-3.10;53.45;98483.97;5090768;28;20040;-57
2022/02/06 10:00:42;;;;;;;46.00;22.77;;;;;;;-2.97;53.28;98473.75;5091682;28;20028;-56
2022/02/06 10:03:11;;;;;;;46.75;22.67;;;;;;;-2.76;52.02;98481.53;5090902;28;20048;-62
2022/02/06 10:05:41;;;;;;;47.65;23.98;;;;;;;-2.74;52.92;98487.53;5089808;28;20036;-58
2022/02/06 10:08:15;;;;;;;47.92;23.58;;;;;;;-2.70;52.49;98477.75;5090519;28;20493;-59
2022/02/06 10:11:02;;;;;;;42.43;21.40;;;;;;;-2.53;52.19;98477.78;5091810;28;20542;-55
2022/02/06 10:13:30;;;;;;;49.63;22.67;;;;;;;-2.64;51.56;98480.09;5089380;28;20024;-59
2022/02/06 10:15:56;;;;;;;49.88;22.98;;;;;;;-2.83;52.72;98475.72;5103834;28;20040;-56
2022/02/06 10:18:22;;;;;;;49.05;23.48;;;;;;;-2.94;52.11;98468.38;5098684;28;20036;-55
2022/02/06 10:20:49;;;;;;;50.42;23.13;;;;;;;-2.97;52.34;98468.53;5091470;28;20088;-58
2022/02/06 10:23:29;;;;;;;45.20;21.83;;;;;;;-3.03;52.90;98476.66;5090837;28;20457;-59
2022/02/06 10:26:05;;;;;;;45.25;22.00;;;;;;;-3.05;53.28;98484.59;5090625;28;20036;-57
2022/02/06 10:31:06;;;;;;;49.65;22.65;;;;;;;-2.96;52.83;98475.47;5092623;28;20043;-56
2022/02/06 10:33:50;;;;;;;44.47;22.70;;;;;;;-2.92;52.46;98476.13;5099613;28;20050;-55
2022/02/06 10:36:21;;;;;;;51.53;24.17;;;;;;;-3.12;53.28;98485.81;5108665;28;20032;-58
2022/02/06 10:38:47;;;;;;;45.42;23.58;;;;;;;-3.29;54.23;98488.34;5104627;28;20436;-55
2022/02/06 10:41:18;;;;;;;47.50;22.92;;;;;;;-3.26;53.83;98475.09;5108439;28;20035;-54
2022/02/06 10:44:03;;;;;;;49.10;21.90;;;;;;;-3.17;53.51;98485.13;5108055;28;20037;-57
2022/02/06 10:46:30;;;;;;;50.22;23.40;;;;;;;-3.32;53.81;98484.94;5110299;28;20390;-57
2022/02/06 10:48:59;;;;;;;48.10;22.23;;;;;;;-3.47;54.01;98441.13;5097059;28;20167;-56
2022/02/06 10:51:44;;;;;;;44.30;21.40;;;;;;;-3.15;53.97;98483.28;5104920;28;20028;-59
2022/02/06 10:54:13;;;;;;;53.65;23.65;;;;;;;-3.16;54.43;98478.97;5109834;28;20040;-59
2022/02/06 10:57:15;;;;;;;47.25;22.75;;;;;;;-2.99;53.93;98482.59;5107798;28;20027;-54
2022/02/06 10:59:43;;;;;;;47.97;23.27;;;;;;;-2.97;53.37;98484.22;5067927;28;20039;-59
2022/02/06 11:02:25;;;;;;;47.00;23.52;;;;;;;-2.94;54.37;98478.00;5090877;28;20093;-60
2022/02/06 11:05:18;;;;;;;51.92;23.05;;;;;;;-2.95;54.07;98485.00;5110111;28;20036;-51
2022/02/06 11:07:54;;;;;;;43.90;22.20;;;;;;;-3.01;53.48;98487.06;5090706;28;20024;-54
2022/02/06 11:10:21;;;;;;;50.35;23.67;;;;;;;-3.55;53.95;98430.19;5099870;28;20054;-60
2022/02/06 11:12:55;;;;;;;51.03;24.13;;;;;;;-3.32;55.12;98487.56;5108866;28;20456;-58
2022/02/06 11:15:25;;;;;;;43.22;22.88;;;;;;;-3.33;55.19;98493.72;5092599;28;20027;-58
2022/02/06 11:18:31;;;;;;;52.17;23.70;;;;;;;-3.26;54.88;98486.41;5112585;28;20084;-55
2022/02/06 11:21:06;;;;;;;45.85;22.30;;;;;;;-3.29;54.70;98489.16;5092495;28;20044;-58
2022/02/06 11:23:37;;;;;;;47.88;22.75;;;;;;;-3.26;54.48;98486.41;5112116;28;20048;-55
2022/02/06 11:26:05;;;;;;;47.40;22.92;;;;;;;-3.32;55.18;98473.59;5111844;28;20027;-55
2022/02/06 11:28:31;;;;;;;48.00;23.23;;;;;;;-3.29;55.30;98485.72;5112678;28;20023;-50
2022/02/06 11:30:56;;;;;;;49.45;23.67;;;;;;;-3.34;54.92;98486.78;5113252;28;20035;-57
2022/02/06 11:33:23;;;;;;;49.35;23.48;;;;;;;-3.36;54.64;98496.47;5106056;28;20092;-52
2022/02/06 11:35:56;;;;;;;47.97;23.20;;;;;;;-3.42;55.17;98490.66;5112509;28;20137;-59
2022/02/06 11:44:43;;;;;;;50.90;23.55;;;;;;;-3.54;55.45;98495.50;5112615;28;20032;-65
2022/02/06 11:47:11;;;;;;;54.13;24.73;;;;;;;-3.73;55.63;98500.69;5112968;28;20031;-57
2022/02/06 11:49:39;;;;;;;56.47;25.40;;;;;;;-3.91;56.48;98503.19;5112883;28;20038;-57
2022/02/06 11:52:05;;;;;;;54.00;23.75;;;;;;;-4.16;57.69;98460.69;5112305;28;20039;-60
2022/02/06 11:54:52;;;;;;;51.05;23.95;;;;;;;-3.87;56.88;98492.59;5112573;28;20035;-60
2022/02/06 11:57:25;;;;;;;47.17;23.58;;;;;;;-3.82;57.23;98488.03;5110267;27;20058;-59
2022/02/06 12:02:32;;;;;;;49.42;23.67;;;;;;;-3.82;57.35;98486.25;5112232;28;20540;-59
2022/02/06 12:05:18;;;;;;;46.83;23.50;;;;;;;-3.76;57.96;98496.44;5112611;28;20042;-59
2022/02/06 12:07:53;;;;;;;55.13;23.48;;;;;;;-3.77;57.58;98496.53;5112230;28;20487;-57
2022/02/06 12:10:42;;;;;;;51.30;24.25;;;;;;;-3.81;57.72;98497.56;5095259;28;20128;-56
2022/02/06 12:13:23;;;;;;;53.80;24.27;;;;;;;-3.77;57.72;98494.75;5090395;28;20044;-55
2022/02/06 12:16:00;;;;;;;48.33;23.10;;;;;;;-3.74;58.19;98501.63;5091145;28;20395;-58
2022/02/06 12:18:34;;;;;;;48.75;22.50;;;;;;;-3.71;57.30;98506.72;5104584;28;20103;-56
2022/02/06 12:21:12;;;;;;;49.10;23.55;;;;;;;-3.73;57.95;98495.47;5109506;28;20118;-56
2022/02/06 12:23:46;;;;;;;46.85;22.50;;;;;;;-3.82;58.25;98490.66;5109082;28;20046;-55
2022/02/06 12:26:31;;;;;;;48.63;23.75;;;;;;;-3.76;58.21;98482.53;5103793;28;20450;-57
2022/02/06 12:29:08;;;;;;;53.55;23.83;;;;;;;-3.73;58.87;98484.19;5107209;28;20481;-57
2022/02/06 12:31:47;;;;;;;49.80;22.98;;;;;;;-3.84;59.25;98456.72;5104760;28;20043;-61
2022/02/06 12:36:53;;;;;;;46.75;22.67;;;;;;;-3.61;59.51;98481.88;5103312;28;20076;-61
2022/02/06 12:37:27;;;;;;;47.28;22.73;;;;;;;-3.56;59.18;98486.03;5103320;28;20518;-59
2022/02/06 12:39:57;;;;;;;50.67;23.52;;;;;;;-3.69;58.75;98451.72;5104880;28;20032;-61
2022/02/06 12:42:39;;;;;;;56.20;23.35;;;;;;;-3.41;58.85;98490.56;5106459;28;20032;-58
2022/02/06 12:45:07;;;;;;;51.78;24.10;;;;;;;-3.42;57.95;98501.13;5109122;28;20032;-57
2022/02/06 12:47:39;;;;;;;50.58;23.67;;;;;;;-3.53;58.84;98507.66;5109853;27;20023;-62
2022/02/06 12:50:13;;;;;;;48.60;22.52;;;;;;;-3.55;59.10;98499.03;5106957;28;20023;-57
2022/02/06 12:52:39;;;;;;;52.92;24.77;;;;;;;-3.55;59.00;98503.44;5109980;28;20032;-55
2022/02/06 12:55:05;;;;;;;49.13;24.13;;;;;;;-3.59;58.89;98501.88;5111923;28;20081;-56
2022/02/06 12:57:49;;;;;;;49.22;23.63;;;;;;;-3.52;59.47;98505.91;5109709;28;20026;-59
2022/02/06 13:00:36;;;;;;;51.90;24.50;;;;;;;-3.48;59.61;98500.50;5106612;28;20036;-57
2022/02/06 13:03:25;;;;;;;48.85;23.25;;;;;;;-3.41;60.57;98501.03;5093011;28;20077;-55
2022/02/06 13:05:52;;;;;;;49.63;23.27;;;;;;;-3.43;59.88;98492.41;5111557;28;20506;-57
2022/02/06 13:08:18;;;;;;;47.97;22.98;;;;;;;-3.39;60.20;98488.72;5110916;28;20034;-57
2022/02/06 13:10:51;;;;;;;50.45;24.08;;;;;;;-3.23;59.73;98504.63;5109544;28;20564;-57
2022/02/06 13:13:20;;;;;;;52.15;24.88;;;;;;;-3.27;59.65;98502.19;5107620;28;20114;-59
2022/02/06 13:16:01;;;;;;;51.83;23.10;;;;;;;-3.29;59.81;98498.81;5104793;28;20110;-60
2022/02/06 13:21:42;;;;;;;46.47;21.98;;;;;;;-3.32;59.48;98511.13;5107405;28;20357;-59
2022/02/06 13:24:24;;;;;;;51.92;24.15;;;;;;;-3.35;59.61;98516.50;5108406;28;20228;-56
2022/02/06 13:27:08;;;;;;;51.80;24.42;;;;;;;-3.35;60.17;98513.00;5092351;28;20028;-53
2022/02/06 13:34:58;;;;;;;54.42;24.48;;;;;;;-3.49;60.55;98508.41;5090084;28;20068;-53
2022/02/06 13:37:31;;;;;;;54.70;25.73;;;;;;;-3.47;60.94;98517.03;5089216;28;20028;-52
2022/02/06 13:40:10;;;;;;;53.55;24.23;;;;;;;-3.46;60.77;98518.72;5089214;28;20034;-55
2022/02/06 13:42:40;;;;;;;54.20;24.83;;;;;;;-3.51;61.35;98508.44;5089785;28;20024;-53
2022/02/06 13:45:13;;;;;;;52.83;24.25;;;;;;;-3.48;60.88;98525.78;5090033;28;20028;-53
2022/02/06 13:47:42;;;;;;;51.25;24.23;;;;;;;-3.51;61.17;98516.28;5088981;28;20132;-57
2022/02/06 13:50:11;;;;;;;55.85;25.00;;;;;;;-3.47;60.92;98523.13;5091355;28;20043;-53
2022/02/06 13:52:43;;;;;;;47.97;22.58;;;;;;;-3.51;61.47;98516.28;5089912;28;20106;-50
2022/02/06 13:55:09;;;;;;;61.42;23.83;;;;;;;-3.51;61.43;98529.38;5089497;28;20027;-55